createdAt,value
2022-11-19T00:03:11.730Z,3.67
2022-11-19T00:08:21.175Z,3.57
2022-11-19T00:13:28.065Z,2.97
2022-11-19T00:18:35.054Z,2.53
2022-11-19T00:23:42.770Z,3.80
2022-11-19T00:28:49.728Z,4.03
2022-11-19T00:33:57.509Z,2.90
2022-11-19T00:39:04.670Z,4.10
2022-11-19T00:44:11.921Z,2.80
2022-11-19T00:49:19.006Z,2.50
2022-11-19T00:54:26.260Z,33.97
2022-11-19T00:59:33.133Z,3.17
2022-11-19T01:04:40.044Z,3.33
2022-11-19T01:09:47.563Z,4.80
2022-11-19T01:14:54.364Z,5.10
2022-11-19T01:20:01.439Z,5.47
2022-11-19T01:25:09.004Z,4.57
2022-11-19T01:30:16.141Z,3.80
2022-11-19T01:35:23.130Z,4.13
2022-11-19T01:40:30.774Z,3.13
2022-11-19T01:45:44.259Z,3.37
2022-11-19T01:50:57.723Z,1.85
2022-11-19T01:56:07.526Z,1.62
2022-11-19T02:01:14.312Z,2.60
2022-11-19T02:06:21.952Z,2.13
2022-11-19T02:11:51.065Z,3.47
2022-11-19T02:17:23.180Z,4.37
2022-11-19T02:23:12.014Z,3.97
2022-11-19T02:28:51.027Z,4.67
2022-11-19T02:34:20.030Z,3.97
2022-11-19T02:39:31.317Z,3.87
2022-11-19T02:45:02.582Z,4.07
2022-11-19T02:50:16.981Z,6.43
2022-11-19T02:55:25.060Z,3.50
2022-11-19T03:00:53.423Z,4.20
2022-11-19T03:06:16.948Z,3.53
2022-11-19T03:11:30.757Z,3.23
2022-11-19T03:17:04.187Z,3.17
2022-11-19T03:22:27.543Z,2.67
2022-11-19T03:27:40.605Z,3.37
2022-11-19T03:32:57.408Z,3.10
2022-11-19T03:38:08.101Z,3.00
2022-11-19T03:43:19.016Z,2.80
2022-11-19T03:48:27.596Z,4.77
2022-11-19T03:53:34.334Z,2.63
2022-11-19T03:58:44.902Z,3.30
2022-11-19T04:04:09.198Z,3.40
2022-11-19T04:14:21.119Z,5.05
2022-11-19T04:19:27.829Z,12.20
2022-11-19T04:24:34.508Z,87.70
2022-11-19T04:29:41.253Z,58.97
2022-11-19T04:34:47.956Z,31.83
2022-11-19T04:39:54.544Z,51.07
2022-11-19T04:45:01.459Z,9.87
2022-11-19T04:50:09.148Z,8.63
2022-11-19T04:55:15.814Z,11.40
2022-11-19T05:00:22.810Z,5.17
2022-11-19T05:05:29.499Z,3.70
2022-11-19T05:10:36.105Z,4.30
2022-11-19T05:15:42.787Z,3.50
2022-11-19T05:20:50.287Z,4.07
2022-11-19T05:25:57.003Z,14.63
2022-11-19T05:31:04.492Z,19.37
2022-11-19T05:36:11.384Z,14.30
2022-11-19T05:41:18.085Z,12.20
2022-11-19T05:46:24.731Z,19.27
2022-11-19T05:51:31.419Z,20.70
2022-11-19T05:56:38.123Z,13.83
2022-11-19T06:01:44.872Z,8.47
2022-11-19T06:06:51.619Z,12.67
2022-11-19T06:11:58.603Z,10.07
2022-11-19T06:17:05.713Z,15.53
2022-11-19T06:22:12.811Z,20.43
2022-11-19T06:27:19.872Z,10.73
2022-11-19T06:32:27.250Z,13.83
2022-11-19T06:37:34.679Z,15.70
2022-11-19T06:42:41.434Z,23.77
2022-11-19T06:47:50.387Z,32.67
2022-11-19T06:52:58.327Z,189.67
2022-11-19T06:58:08.056Z,116.93
2022-11-19T07:03:14.880Z,17.07
2022-11-19T07:08:21.813Z,498.77
2022-11-19T07:13:30.360Z,28.80
2022-11-19T07:18:37.213Z,367.20
2022-11-19T07:23:44.079Z,37.13
2022-11-19T07:28:52.010Z,32.33
2022-11-19T07:33:59.686Z,45.60
2022-11-19T07:39:07.908Z,14.77
2022-11-19T07:44:15.083Z,51.93
2022-11-19T07:49:22.690Z,43.37
2022-11-19T07:54:29.958Z,8.93
2022-11-19T07:59:36.735Z,13.23
2022-11-19T08:04:43.878Z,11.80
2022-11-19T08:09:50.775Z,8.77
2022-11-19T08:14:57.799Z,8.53
2022-11-19T08:20:05.007Z,7.90
2022-11-19T08:25:11.846Z,7.33
2022-11-19T08:35:43.473Z,7.78
2022-11-19T08:40:56.784Z,12.10
2022-11-19T08:46:03.868Z,9.08
2022-11-19T08:51:11.743Z,12.33
2022-11-19T08:56:18.637Z,10.87
2022-11-19T09:01:26.411Z,35.80
2022-11-19T09:06:34.661Z,12.20
2022-11-19T09:11:43.053Z,12.60
2022-11-19T09:16:50.284Z,13.07
2022-11-19T09:21:57.402Z,14.10
2022-11-19T09:27:05.006Z,11.93
2022-11-19T09:32:12.328Z,12.97
2022-11-19T09:37:19.612Z,12.70
2022-11-19T09:42:53.323Z,10.43
2022-11-19T09:48:10.401Z,10.53
2022-11-19T09:53:20.672Z,11.53
2022-11-19T09:58:40.519Z,11.77
2022-11-19T10:03:53.382Z,13.00
2022-11-19T10:09:10.054Z,12.07
2022-11-19T10:14:24.173Z,11.77
2022-11-19T10:20:03.666Z,12.63
2022-11-19T10:25:20.130Z,13.07
2022-11-19T10:30:30.524Z,13.67
2022-11-19T10:35:44.273Z,11.07
2022-11-19T10:40:58.557Z,11.97
2022-11-19T10:46:09.863Z,11.93
2022-11-19T10:51:31.738Z,130.27
2022-11-19T10:56:41.759Z,25.70
2022-11-19T11:01:55.866Z,58.80
2022-11-19T11:07:06.536Z,256.00
2022-11-19T11:12:35.547Z,55.47
2022-11-19T11:17:43.422Z,66.97
2022-11-19T11:22:53.604Z,192.80
2022-11-19T11:28:16.067Z,15.57
2022-11-19T11:33:41.772Z,17.93
2022-11-19T11:38:51.773Z,12.03
2022-11-19T11:44:03.043Z,98.97
2022-11-19T11:49:13.305Z,92.03
2022-11-19T11:54:25.008Z,294.57
2022-11-19T11:59:33.280Z,74.57
2022-11-19T12:04:40.399Z,367.77
2022-11-19T12:10:36.749Z,758.47
2022-11-19T12:16:07.303Z,645.73
2022-11-19T12:21:18.341Z,323.50
2022-11-19T12:27:01.954Z,166.20
2022-11-19T12:32:24.815Z,77.50
2022-11-19T12:38:03.479Z,156.03
2022-11-19T12:43:43.304Z,203.90
2022-11-19T12:49:27.878Z,62.03
2022-11-19T12:54:50.648Z,166.97
2022-11-19T13:00:02.089Z,144.33
2022-11-19T13:05:58.982Z,93.53
2022-11-19T13:11:16.023Z,101.50
2022-11-19T13:16:24.655Z,145.87
2022-11-19T13:21:38.890Z,286.10
2022-11-19T13:26:45.532Z,206.37
2022-11-19T13:32:05.114Z,488.03
2022-11-19T13:37:24.235Z,80.73
2022-11-19T13:43:04.113Z,158.93
2022-11-19T13:48:03.303Z,441.60
2022-11-19T13:53:31.412Z,315.63
2022-11-19T13:58:39.416Z,242.83
2022-11-19T14:03:59.393Z,470.63
2022-11-19T14:09:25.616Z,695.93
2022-11-19T14:15:25.431Z,542.07
2022-11-19T14:20:59.337Z,797.73
2022-11-19T14:26:22.340Z,874.10
2022-11-19T14:31:29.067Z,788.60
2022-11-19T14:36:47.910Z,787.53
2022-11-19T14:42:20.199Z,784.33
2022-11-19T14:47:39.849Z,656.40
2022-11-19T14:52:56.397Z,657.20
2022-11-19T14:58:07.274Z,449.67
2022-11-19T15:03:21.960Z,314.50
2022-11-19T15:08:50.460Z,376.30
2022-11-19T15:14:38.298Z,385.63
2022-11-19T15:19:48.291Z,432.20
2022-11-19T15:30:25.770Z,464.45
2022-11-19T15:35:59.103Z,709.60
2022-11-19T15:41:08.971Z,863.23
2022-11-19T15:46:32.003Z,671.30
2022-11-19T15:51:55.050Z,530.73
2022-11-19T15:57:17.825Z,568.20
2022-11-19T16:02:40.079Z,358.40
2022-11-19T16:07:49.148Z,506.83
2022-11-19T16:13:06.485Z,409.07
2022-11-19T16:18:19.596Z,287.43
2022-11-19T16:23:28.375Z,235.40
2022-11-19T16:28:35.920Z,200.37
2022-11-19T16:33:43.717Z,128.73
2022-11-19T16:38:53.548Z,63.53
2022-11-19T16:44:01.009Z,73.53
2022-11-19T16:49:15.404Z,273.17
2022-11-19T16:54:52.851Z,233.37
2022-11-19T17:00:15.930Z,610.73
2022-11-19T17:05:26.592Z,489.30
2022-11-19T17:10:35.031Z,543.33
2022-11-19T17:15:52.293Z,199.87
2022-11-19T17:21:03.235Z,202.77
2022-11-19T17:26:12.199Z,110.83
2022-11-19T17:31:26.578Z,333.63
2022-11-19T17:36:33.392Z,337.33
2022-11-19T17:41:59.614Z,302.77
2022-11-19T17:47:24.364Z,298.20
2022-11-19T17:52:33.749Z,322.60
2022-11-19T17:57:42.790Z,268.53
2022-11-19T18:02:49.298Z,516.50
2022-11-19T18:07:56.075Z,225.23
2022-11-19T18:13:03.919Z,174.63
2022-11-19T18:18:10.736Z,311.20
2022-11-19T18:23:17.916Z,306.20
2022-11-19T18:28:24.869Z,187.73
2022-11-19T18:33:33.183Z,286.20
2022-11-19T18:38:40.003Z,225.10
2022-11-19T18:44:04.733Z,245.83
2022-11-19T18:49:11.860Z,467.93
2022-11-19T18:54:18.920Z,548.93
2022-11-19T18:59:26.699Z,616.90
2022-11-19T19:04:33.979Z,456.83
2022-11-19T19:09:41.184Z,637.10
2022-11-19T19:14:52.504Z,375.97
2022-11-19T19:19:59.833Z,401.47
2022-11-19T19:25:07.479Z,438.90
2022-11-19T19:30:15.898Z,257.97
2022-11-19T19:35:22.791Z,119.83
2022-11-19T19:40:30.485Z,94.53
2022-11-19T19:45:38.297Z,97.23
2022-11-19T19:50:54.093Z,91.50
2022-11-19T19:56:11.259Z,154.63
2022-11-19T20:01:23.010Z,112.00
2022-11-19T20:06:32.774Z,48.93
2022-11-19T20:11:40.954Z,31.33
2022-11-19T20:16:48.089Z,64.97
2022-11-19T20:21:55.459Z,45.43
2022-11-19T20:27:03.243Z,29.93
2022-11-19T20:32:10.679Z,19.80
2022-11-19T20:37:17.752Z,10.60
2022-11-19T20:42:41.656Z,10.10
2022-11-19T20:47:48.470Z,10.03
2022-11-19T20:52:55.924Z,8.23
2022-11-19T20:58:03.001Z,6.33
2022-11-19T21:03:10.850Z,6.73
2022-11-19T21:08:19.148Z,6.97
2022-11-19T21:13:25.945Z,53.07
2022-11-19T21:18:36.815Z,37.80
2022-11-19T21:23:44.239Z,5.40
2022-11-19T21:28:57.456Z,139.57
2022-11-19T21:34:04.993Z,220.60
2022-11-19T21:39:14.312Z,173.40
2022-11-19T21:44:22.142Z,251.23
2022-11-19T21:49:29.289Z,385.17
2022-11-19T21:54:36.299Z,695.50
2022-11-19T21:59:43.293Z,715.30
2022-11-19T22:04:50.030Z,677.23
2022-11-19T22:09:57.088Z,539.10
2022-11-19T22:15:04.009Z,683.20
2022-11-19T22:20:12.254Z,525.73
2022-11-19T22:25:19.083Z,559.13
2022-11-19T22:30:26.030Z,805.80
2022-11-19T22:35:32.815Z,735.80
2022-11-19T22:40:39.648Z,423.80
2022-11-19T22:45:49.464Z,553.03
2022-11-19T22:50:56.649Z,422.13
2022-11-19T22:56:06.495Z,415.63
2022-11-19T23:01:20.333Z,352.00
2022-11-19T23:06:29.415Z,381.07
2022-11-19T23:11:54.670Z,177.63
2022-11-19T23:17:01.449Z,215.90
2022-11-19T23:22:08.975Z,100.80
2022-11-19T23:27:20.854Z,303.63
2022-11-19T23:32:24.669Z,373.53
2022-11-19T23:37:31.812Z,309.77
2022-11-19T23:42:40.181Z,223.37
2022-11-19T23:47:47.266Z,200.33
2022-11-19T23:52:54.434Z,240.93
2022-11-19T23:58:01.278Z,276.90
